Terminal Aerodrome Forecast
Issued by NWS Wilmington, OH

Current Version | Previous Version | Graphics & Text | Print | Product List | Glossary On
Versions: 1 2 3 4 5 6 7 8 9 10 11 12 13 14 15 16 17 18 19 20 21 22 23 24 25 26 27 28
000
FTUS41 KILN 271600 AAB
TAFCVG
TAF AMD
KCVG 271609Z 2716/2818 36011KT P6SM BKN035
      TEMPO 2716/2719 BKN025
     FM272000 32014G22KT P6SM BKN040
     FM280000 33009KT P6SM FEW040
     FM281200 36009KT P6SM SCT030=

USA.gov is the U.S. government's official web portal to all federal, state and local government web resources and services.